Time;durP1;ratioP1;P1;durP2;ratioP2;P2;SDS_P1;SDS_P2;PMS_P1;PMS_P2;Temp;Humidity;BMP_temperature;BMP_pressure;BME280_temperature;BME280_humidity;BME280_pressure;Samples;Min_cycle;Max_cycle;Signal;HPM_P1;HPM_P2
2023/10/30 00:01:15;;;;;;;0.60;0.30;;;10.90;95.30;;;;;;4986131;28;20042;-67
2023/10/30 00:03:40;;;;;;;0.82;0.55;;;10.90;94.90;;;;;;4986737;28;20038;-67
2023/10/30 00:06:06;;;;;;;0.68;0.40;;;10.90;94.90;;;;;;4988876;28;20050;-68
2023/10/30 00:08:32;;;;;;;1.27;0.35;;;10.90;94.50;;;;;;4987534;28;20026;-67
2023/10/30 00:10:57;;;;;;;0.63;0.28;;;10.90;94.40;;;;;;4981944;28;20039;-67
2023/10/30 00:13:23;;;;;;;0.52;0.47;;;11.00;93.90;;;;;;4980758;28;20038;-67
2023/10/30 00:15:48;;;;;;;0.57;0.57;;;11.00;94.10;;;;;;4985395;28;20341;-67
2023/10/30 00:18:14;;;;;;;0.32;0.20;;;11.00;93.90;;;;;;4991956;28;20485;-68
2023/10/30 00:20:39;;;;;;;0.93;0.38;;;11.00;93.80;;;;;;4990555;28;20414;-67
2023/10/30 00:23:05;;;;;;;1.42;0.47;;;11.00;94.10;;;;;;4990719;28;20170;-67
2023/10/30 00:25:30;;;;;;;1.35;0.50;;;11.00;94.00;;;;;;4993612;28;20140;-67
2023/10/30 00:27:59;;;;;;;0.30;0.30;;;10.90;94.00;;;;;;4986141;28;20089;-67
2023/10/30 00:30:28;;;;;;;0.52;0.40;;;10.70;94.40;;;;;;4986990;28;20317;-67
2023/10/30 00:32:54;;;;;;;0.35;0.20;;;10.80;94.00;;;;;;4989775;28;20034;-67
2023/10/30 00:35:19;;;;;;;1.40;0.30;;;10.90;93.50;;;;;;4996074;28;20038;-67
2023/10/30 00:37:45;;;;;;;0.68;0.55;;;10.80;93.40;;;;;;4989568;28;20058;-67
2023/10/30 00:40:11;;;;;;;0.93;0.30;;;10.80;93.20;;;;;;4990986;28;20097;-67
2023/10/30 00:42:37;;;;;;;1.67;0.30;;;10.80;93.20;;;;;;4985325;28;20387;-68
2023/10/30 00:45:05;;;;;;;1.50;0.47;;;10.60;94.00;;;;;;4987142;28;20111;-67
2023/10/30 00:47:31;;;;;;;0.88;0.30;;;10.70;93.50;;;;;;4981974;28;20627;-69
2023/10/30 00:49:56;;;;;;;1.08;0.28;;;10.60;94.10;;;;;;4985120;28;20049;-67
2023/10/30 00:52:22;;;;;;;0.65;0.35;;;10.50;94.40;;;;;;4983838;28;20038;-68
2023/10/30 00:54:48;;;;;;;1.08;0.50;;;10.40;94.50;;;;;;4985276;28;20654;-70
2023/10/30 00:57:13;;;;;;;0.47;0.30;;;10.40;94.80;;;;;;4976956;28;20121;-69
2023/10/30 00:59:40;;;;;;;1.90;0.32;;;10.30;95.20;;;;;;4982402;28;20043;-68
2023/10/30 01:02:05;;;;;;;1.20;0.40;;;10.20;95.50;;;;;;4985630;28;20035;-68
2023/10/30 01:04:31;;;;;;;2.03;0.43;;;10.30;95.20;;;;;;4986919;28;20046;-68
2023/10/30 01:06:57;;;;;;;0.65;0.28;;;10.10;95.50;;;;;;4985741;28;20039;-67
2023/10/30 01:09:22;;;;;;;0.90;0.47;;;10.10;95.70;;;;;;4987830;28;20392;-67
2023/10/30 01:11:48;;;;;;;0.63;0.50;;;10.00;95.80;;;;;;4989148;28;20035;-69
2023/10/30 01:14:13;;;;;;;0.22;0.22;;;10.00;96.30;;;;;;4983199;28;20038;-68
2023/10/30 01:16:39;;;;;;;0.30;0.30;;;10.00;96.00;;;;;;4984020;28;20489;-67
2023/10/30 01:19:04;;;;;;;0.75;0.45;;;10.10;96.00;;;;;;4985100;28;20031;-67
2023/10/30 01:21:30;;;;;;;4.13;0.30;;;10.00;95.80;;;;;;4986294;28;20030;-67
2023/10/30 01:23:55;;;;;;;1.10;0.35;;;9.90;96.10;;;;;;4988463;28;20042;-67
2023/10/30 01:26:20;;;;;;;1.55;0.55;;;10.10;95.80;;;;;;4987228;28;20317;-67
2023/10/30 01:28:46;;;;;;;1.17;0.38;;;10.10;95.50;;;;;;4992537;28;20069;-68
2023/10/30 01:31:11;;;;;;;1.33;0.60;;;10.10;95.50;;;;;;4985339;28;20463;-67
2023/10/30 01:33:37;;;;;;;1.83;0.60;;;10.10;95.70;;;;;;4987346;28;20073;-67
2023/10/30 01:36:03;;;;;;;1.50;0.57;;;10.10;95.60;;;;;;4991259;28;20034;-67
2023/10/30 01:38:28;;;;;;;3.17;0.40;;;10.10;95.70;;;;;;4989492;28;20030;-67
2023/10/30 01:40:54;;;;;;;0.57;0.28;;;10.10;96.00;;;;;;4989178;28;20030;-67
2023/10/30 01:43:32;;;;;;;2.20;0.45;;;10.20;95.80;;;;;;4984060;28;20506;-67
2023/10/30 01:45:58;;;;;;;2.60;0.60;;;10.10;95.90;;;;;;4987056;28;22614;-67
2023/10/30 01:48:27;;;;;;;0.75;0.30;;;10.10;95.60;;;;;;4983652;28;20038;-67
2023/10/30 01:50:53;;;;;;;0.68;0.38;;;10.10;95.80;;;;;;4987135;28;20491;-68
2023/10/30 01:53:20;;;;;;;0.52;0.50;;;10.10;95.90;;;;;;4988087;28;20110;-70
2023/10/30 01:55:46;;;;;;;0.50;0.30;;;10.00;96.30;;;;;;4987556;28;20911;-68
2023/10/30 01:58:11;;;;;;;1.38;0.52;;;10.10;96.30;;;;;;4984090;28;20888;-68
2023/10/30 02:00:38;;;;;;;0.85;0.30;;;10.00;96.40;;;;;;4979431;28;20031;-68
2023/10/30 02:03:04;;;;;;;0.40;0.30;;;10.10;96.40;;;;;;4981558;28;20126;-69
2023/10/30 02:05:29;;;;;;;0.22;0.22;;;10.10;96.40;;;;;;4981864;28;20470;-68
2023/10/30 02:07:56;;;;;;;0.20;0.20;;;10.10;96.20;;;;;;4982621;28;20124;-67
2023/10/30 02:10:21;;;;;;;2.10;0.50;;;10.20;96.20;;;;;;4980826;28;20038;-67
2023/10/30 02:12:50;;;;;;;0.52;0.35;;;10.10;96.30;;;;;;4980859;28;20036;-67
2023/10/30 02:15:16;;;;;;;0.85;0.30;;;10.20;96.30;;;;;;4980283;28;20443;-69
2023/10/30 02:17:42;;;;;;;0.65;0.38;;;10.20;96.30;;;;;;4982103;28;20033;-67
2023/10/30 02:20:08;;;;;;;1.52;0.50;;;10.20;96.40;;;;;;4982056;28;20026;-68
2023/10/30 02:22:33;;;;;;;0.73;0.30;;;10.10;96.60;;;;;;4980748;28;20045;-68
2023/10/30 02:24:59;;;;;;;0.35;0.22;;;10.40;96.20;;;;;;4977545;28;20047;-68
2023/10/30 02:27:24;;;;;;;4.40;0.50;;;10.50;95.60;;;;;;4976709;28;20105;-67
2023/10/30 02:29:50;;;;;;;2.55;0.60;;;10.60;95.50;;;;;;4987015;28;20153;-67
2023/10/30 02:32:16;;;;;;;0.68;0.38;;;10.50;95.50;;;;;;4987119;28;20041;-67
2023/10/30 02:34:41;;;;;;;1.25;0.55;;;10.60;95.30;;;;;;4984762;28;20069;-67
2023/10/30 02:37:07;;;;;;;2.05;0.60;;;10.70;95.20;;;;;;4985574;28;20026;-68
2023/10/30 02:39:33;;;;;;;0.80;0.50;;;10.70;94.90;;;;;;4981001;28;20042;-68
2023/10/30 02:42:02;;;;;;;1.70;0.40;;;10.60;95.40;;;;;;4977454;28;20099;-69
2023/10/30 02:44:28;;;;;;;0.68;0.50;;;10.60;95.40;;;;;;4976628;28;20022;-67
2023/10/30 02:46:54;;;;;;;0.63;0.32;;;10.50;95.70;;;;;;4979319;28;20023;-68
2023/10/30 02:49:20;;;;;;;2.15;0.77;;;10.70;95.20;;;;;;4982725;28;20034;-67
2023/10/30 02:51:46;;;;;;;3.47;0.95;;;10.80;94.70;;;;;;4980935;28;20034;-69
2023/10/30 02:54:11;;;;;;;1.35;0.70;;;10.70;94.90;;;;;;4981993;28;20037;-67
2023/10/30 02:56:37;;;;;;;0.85;0.38;;;10.70;95.10;;;;;;4980671;28;20384;-68
2023/10/30 02:59:02;;;;;;;0.52;0.30;;;10.70;94.90;;;;;;4976102;28;20463;-68
2023/10/30 03:01:28;;;;;;;0.32;0.30;;;10.80;94.70;;;;;;4978800;28;20026;-68
2023/10/30 03:03:54;;;;;;;1.77;0.50;;;10.80;94.60;;;;;;4979908;28;20379;-67
2023/10/30 03:06:20;;;;;;;0.28;0.20;;;10.60;95.10;;;;;;4981036;28;20034;-69
2023/10/30 03:08:45;;;;;;;0.40;0.30;;;10.60;95.30;;;;;;4981689;28;20095;-68
2023/10/30 03:11:11;;;;;;;2.08;0.80;;;10.60;95.40;;;;;;4981541;28;20046;-67
2023/10/30 03:13:36;;;;;;;1.48;0.60;;;10.60;95.20;;;;;;4978097;28;20022;-69
2023/10/30 03:16:02;;;;;;;1.63;0.40;;;10.70;95.30;;;;;;4978003;28;20471;-69
2023/10/30 03:18:27;;;;;;;0.95;0.43;;;10.60;95.10;;;;;;4980436;28;20030;-67
2023/10/30 03:20:52;;;;;;;0.95;0.60;;;10.70;95.40;;;;;;4986206;28;20026;-68
2023/10/30 03:23:20;;;;;;;2.92;0.73;;;10.80;95.00;;;;;;4981952;28;20476;-68
2023/10/30 03:25:46;;;;;;;1.05;0.30;;;10.80;95.10;;;;;;4988986;28;20049;-68
2023/10/30 03:28:11;;;;;;;0.70;0.40;;;10.80;94.80;;;;;;4981383;28;20056;-67
2023/10/30 03:30:37;;;;;;;0.70;0.35;;;10.90;94.50;;;;;;4982101;28;20442;-69
2023/10/30 03:33:04;;;;;;;3.80;0.60;;;10.90;94.40;;;;;;4980129;28;20029;-68
2023/10/30 03:35:31;;;;;;;1.92;0.65;;;10.90;94.20;;;;;;4978781;28;20101;-69
2023/10/30 03:37:57;;;;;;;0.75;0.32;;;11.00;94.10;;;;;;4980516;28;20037;-68
2023/10/30 03:40:22;;;;;;;2.15;0.60;;;11.00;94.00;;;;;;4979243;28;20034;-70
2023/10/30 03:42:48;;;;;;;0.77;0.38;;;10.90;94.20;;;;;;4975124;28;20579;-67
2023/10/30 03:45:13;;;;;;;1.20;0.50;;;10.80;94.60;;;;;;4981176;28;20045;-67
2023/10/30 03:47:40;;;;;;;1.95;0.85;;;10.80;94.60;;;;;;4978495;28;20483;-70
2023/10/30 03:50:06;;;;;;;1.40;0.32;;;10.80;94.20;;;;;;4977456;28;20395;-68
2023/10/30 03:52:32;;;;;;;0.52;0.30;;;10.80;94.20;;;;;;4980192;28;20042;-69
2023/10/30 03:55:03;;;;;;;1.00;0.40;;;10.80;94.60;;;;;;4979728;28;20053;-67
2023/10/30 03:57:32;;;;;;;1.20;0.63;;;10.70;94.40;;;;;;4977223;28;20513;-68
2023/10/30 03:59:58;;;;;;;0.95;0.35;;;10.80;94.40;;;;;;4976331;28;20120;-70
2023/10/30 04:02:23;;;;;;;1.42;0.60;;;10.80;94.10;;;;;;4982446;28;20038;-70
2023/10/30 04:04:49;;;;;;;2.45;1.15;;;10.80;94.10;;;;;;4986839;28;20517;-67
2023/10/30 04:07:14;;;;;;;2.15;0.45;;;10.90;93.60;;;;;;4983690;28;20050;-70
2023/10/30 04:09:40;;;;;;;1.05;0.60;;;10.80;93.80;;;;;;4985596;28;20034;-66
2023/10/30 04:12:05;;;;;;;0.47;0.35;;;10.80;93.90;;;;;;4981617;28;20525;-69
2023/10/30 04:14:31;;;;;;;1.55;0.20;;;10.90;93.50;;;;;;4983652;28;20034;-68
2023/10/30 04:16:57;;;;;;;1.00;0.45;;;10.60;94.20;;;;;;4984441;28;20026;-67
2023/10/30 04:19:23;;;;;;;1.75;0.45;;;10.70;94.30;;;;;;4983724;28;20046;-68
2023/10/30 04:21:48;;;;;;;0.30;0.30;;;10.60;94.50;;;;;;4985592;28;20395;-67
2023/10/30 04:24:14;;;;;;;0.77;0.20;;;10.50;94.90;;;;;;4984914;28;20060;-67
2023/10/30 04:26:39;;;;;;;0.75;0.52;;;10.60;94.60;;;;;;4978463;28;20132;-69
2023/10/30 04:29:05;;;;;;;0.80;0.47;;;10.50;94.40;;;;;;4976653;28;20030;-67
2023/10/30 04:31:30;;;;;;;1.05;0.43;;;10.50;94.90;;;;;;4988028;28;20053;-67
2023/10/30 04:33:56;;;;;;;1.88;0.63;;;10.40;95.10;;;;;;4985826;28;20418;-69
2023/10/30 04:36:22;;;;;;;0.85;0.35;;;10.40;95.10;;;;;;4988471;28;20611;-69
2023/10/30 04:38:49;;;;;;;2.55;0.80;;;10.40;94.80;;;;;;4986596;28;20034;-67
2023/10/30 04:41:15;;;;;;;0.95;0.52;;;10.30;95.30;;;;;;4977609;28;20390;-67
2023/10/30 04:43:40;;;;;;;2.75;0.65;;;10.20;95.70;;;;;;4977720;28;20046;-70
2023/10/30 04:46:06;;;;;;;0.80;0.50;;;10.20;95.80;;;;;;4978632;28;20100;-69
2023/10/30 04:48:32;;;;;;;2.00;0.47;;;10.30;95.60;;;;;;4979517;28;20073;-67
2023/10/30 04:50:59;;;;;;;1.50;1.27;;;10.10;95.80;;;;;;4978879;28;20046;-68
2023/10/30 04:53:25;;;;;;;1.85;0.60;;;10.10;95.70;;;;;;4980216;28;20034;-70
2023/10/30 04:55:51;;;;;;;1.67;0.63;;;10.10;96.00;;;;;;4982426;28;20034;-68
2023/10/30 04:58:17;;;;;;;1.67;0.47;;;10.00;96.20;;;;;;4981722;28;20030;-70
2023/10/30 05:00:43;;;;;;;2.47;0.75;;;9.90;96.30;;;;;;4980794;28;20129;-68
2023/10/30 05:03:12;;;;;;;1.13;0.50;;;10.00;96.60;;;;;;4978759;28;20436;-67
2023/10/30 05:05:37;;;;;;;0.98;0.40;;;10.00;96.40;;;;;;4985927;28;20133;-67
2023/10/30 05:08:04;;;;;;;0.73;0.73;;;10.00;96.70;;;;;;4983245;28;20575;-67
2023/10/30 05:10:29;;;;;;;1.35;0.60;;;10.00;96.50;;;;;;4981603;28;20026;-67
2023/10/30 05:12:55;;;;;;;0.55;0.47;;;9.90;96.40;;;;;;4986441;28;20096;-67
2023/10/30 05:15:23;;;;;;;0.75;0.40;;;9.90;96.50;;;;;;4984343;28;20046;-67
2023/10/30 05:17:49;;;;;;;1.10;0.40;;;9.90;96.60;;;;;;4987814;28;20022;-68
2023/10/30 05:20:15;;;;;;;2.60;0.40;;;9.80;96.70;;;;;;4989580;28;20497;-70
2023/10/30 05:22:42;;;;;;;0.70;0.28;;;9.80;96.90;;;;;;4992399;28;20037;-67
2023/10/30 05:25:08;;;;;;;1.17;0.22;;;9.90;96.60;;;;;;4987143;28;20060;-67
2023/10/30 05:27:34;;;;;;;0.55;0.28;;;9.90;96.80;;;;;;4983248;28;20225;-66
2023/10/30 05:30:00;;;;;;;0.85;0.50;;;9.90;96.80;;;;;;4986308;28;20038;-64
2023/10/30 05:32:26;;;;;;;1.20;0.40;;;9.90;96.40;;;;;;4984255;28;20081;-65
2023/10/30 05:34:52;;;;;;;0.55;0.38;;;9.90;96.60;;;;;;4991629;28;20037;-65
2023/10/30 05:37:18;;;;;;;1.75;0.60;;;9.90;96.80;;;;;;4983249;28;20027;-67
2023/10/30 05:39:44;;;;;;;0.88;0.55;;;9.90;96.70;;;;;;4997436;28;20038;-64
2023/10/30 05:42:10;;;;;;;3.22;0.70;;;9.90;96.50;;;;;;4980236;28;20513;-67
2023/10/30 05:44:36;;;;;;;0.70;0.40;;;9.90;96.80;;;;;;4979150;28;20030;-67
2023/10/30 05:47:02;;;;;;;1.27;0.63;;;9.80;96.60;;;;;;4983108;28;20509;-65
2023/10/30 05:49:28;;;;;;;1.55;0.40;;;9.80;97.00;;;;;;4982651;28;20022;-65
2023/10/30 05:51:54;;;;;;;1.45;0.63;;;9.90;96.80;;;;;;4980008;28;20085;-64
2023/10/30 05:54:20;;;;;;;2.75;0.77;;;9.70;96.70;;;;;;4981259;28;20085;-65
2023/10/30 05:56:46;;;;;;;1.40;0.68;;;9.70;97.10;;;;;;4980481;28;20535;-67
2023/10/30 05:59:11;;;;;;;1.45;0.57;;;9.60;97.40;;;;;;4980065;28;20039;-66
2023/10/30 06:01:37;;;;;;;2.85;0.77;;;9.70;97.30;;;;;;4980369;28;20042;-65
2023/10/30 06:04:02;;;;;;;0.85;0.45;;;9.70;97.30;;;;;;4983269;28;20372;-65
2023/10/30 06:06:28;;;;;;;1.10;0.60;;;9.80;97.20;;;;;;4981481;28;20073;-65
2023/10/30 06:08:54;;;;;;;2.03;0.50;;;9.80;97.10;;;;;;4980184;28;20042;-64
2023/10/30 06:11:20;;;;;;;2.45;0.35;;;9.80;96.90;;;;;;4978629;28;20042;-65
2023/10/30 06:13:45;;;;;;;1.27;0.60;;;9.80;97.00;;;;;;4976813;28;20471;-67
2023/10/30 06:16:18;;;;;;;2.70;0.70;;;9.90;96.80;;;;;;4979714;28;20161;-64
2023/10/30 06:18:44;;;;;;;2.15;0.52;;;9.90;96.80;;;;;;4979986;28;20124;-64
2023/10/30 06:21:17;;;;;;;0.73;0.47;;;10.00;96.40;;;;;;4982262;28;21681;-65
2023/10/30 06:23:43;;;;;;;2.78;0.50;;;10.00;96.60;;;;;;4977620;28;20042;-66
2023/10/30 06:26:09;;;;;;;1.40;0.32;;;9.90;96.80;;;;;;4978736;28;20093;-65
2023/10/30 06:28:36;;;;;;;0.35;0.30;;;9.90;96.60;;;;;;4982304;28;20110;-65
2023/10/30 06:31:03;;;;;;;1.77;0.75;;;9.90;96.60;;;;;;4984355;28;20043;-65
2023/10/30 06:33:30;;;;;;;0.30;0.25;;;9.80;96.80;;;;;;4988519;28;20371;-65
2023/10/30 06:35:58;;;;;;;0.90;0.45;;;9.80;97.10;;;;;;4986968;28;20097;-65
2023/10/30 06:38:24;;;;;;;1.08;0.40;;;9.80;97.20;;;;;;4982239;28;20025;-65
2023/10/30 06:40:49;;;;;;;1.17;0.57;;;9.80;96.90;;;;;;4981105;28;20038;-66
2023/10/30 06:43:15;;;;;;;1.70;0.85;;;9.90;96.80;;;;;;4974283;28;20042;-65
2023/10/30 06:45:40;;;;;;;3.53;0.43;;;9.80;96.90;;;;;;4978722;28;20368;-66
2023/10/30 06:48:06;;;;;;;0.30;0.30;;;9.80;97.20;;;;;;4979929;28;20030;-67
2023/10/30 06:50:32;;;;;;;2.28;0.60;;;9.90;97.10;;;;;;4977158;28;20052;-65
2023/10/30 06:52:58;;;;;;;1.33;0.50;;;9.80;97.10;;;;;;4985754;28;20468;-67
2023/10/30 06:55:23;;;;;;;0.50;0.30;;;9.90;97.00;;;;;;4988195;28;20033;-65
2023/10/30 06:57:49;;;;;;;0.95;0.40;;;9.80;97.10;;;;;;4983429;28;20061;-65
2023/10/30 07:00:14;;;;;;;2.58;0.68;;;9.90;97.00;;;;;;4981505;28;20363;-65
2023/10/30 07:02:41;;;;;;;5.10;0.98;;;9.90;96.60;;;;;;4980373;28;20038;-66
2023/10/30 07:05:07;;;;;;;2.40;0.57;;;10.00;96.80;;;;;;4977763;28;20442;-65
2023/10/30 07:07:32;;;;;;;4.70;0.98;;;10.00;96.60;;;;;;4987446;28;20041;-66
2023/10/30 07:09:58;;;;;;;0.98;0.38;;;9.90;96.70;;;;;;4986071;28;20628;-66
2023/10/30 07:12:23;;;;;;;2.80;0.50;;;9.90;96.90;;;;;;4977492;28;20027;-67
2023/10/30 07:14:49;;;;;;;1.42;0.40;;;9.90;97.10;;;;;;4980484;28;20030;-68
2023/10/30 07:17:14;;;;;;;0.88;0.40;;;9.80;97.30;;;;;;4986406;28;20034;-67
2023/10/30 07:19:40;;;;;;;1.02;0.45;;;9.80;97.30;;;;;;4987847;28;20038;-67
2023/10/30 07:22:05;;;;;;;0.75;0.75;;;9.90;97.30;;;;;;4978331;28;20034;-68
2023/10/30 07:24:31;;;;;;;2.80;0.70;;;10.00;97.00;;;;;;4988130;28;20022;-66
2023/10/30 07:26:57;;;;;;;0.28;0.28;;;9.90;97.10;;;;;;4981898;28;20351;-66
2023/10/30 07:29:23;;;;;;;1.05;0.50;;;10.00;97.10;;;;;;4984079;28;20046;-65
2023/10/30 07:31:49;;;;;;;1.13;0.50;;;9.90;97.00;;;;;;4937008;28;20062;-67
2023/10/30 07:34:14;;;;;;;0.73;0.40;;;9.90;97.20;;;;;;4979947;28;20387;-66
2023/10/30 07:36:40;;;;;;;2.58;0.47;;;9.90;97.30;;;;;;4981790;28;20076;-65
2023/10/30 07:39:07;;;;;;;0.82;0.55;;;9.90;97.20;;;;;;4982320;28;20029;-64
2023/10/30 07:41:33;;;;;;;1.02;0.40;;;9.90;97.30;;;;;;4982244;28;20038;-65
2023/10/30 07:43:59;;;;;;;0.40;0.40;;;10.00;97.20;;;;;;4979197;28;20026;-64
2023/10/30 07:46:25;;;;;;;2.38;0.60;;;9.90;97.20;;;;;;4984275;28;20034;-64
2023/10/30 07:48:50;;;;;;;2.92;0.57;;;9.90;97.30;;;;;;4983025;28;20427;-65
2023/10/30 07:51:16;;;;;;;1.90;0.45;;;9.80;97.40;;;;;;4981692;28;20452;-64
2023/10/30 07:53:42;;;;;;;0.75;0.30;;;9.80;97.60;;;;;;4980036;28;20092;-64
2023/10/30 07:56:08;;;;;;;1.77;0.73;;;9.80;97.50;;;;;;4981790;28;20026;-65
2023/10/30 07:58:33;;;;;;;2.55;0.60;;;9.90;97.40;;;;;;4982628;28;20501;-66
2023/10/30 08:00:59;;;;;;;1.13;0.47;;;9.90;97.40;;;;;;4983961;28;20030;-67
2023/10/30 08:03:24;;;;;;;0.85;0.50;;;9.90;97.30;;;;;;4984066;28;20042;-67
2023/10/30 08:05:50;;;;;;;1.13;0.47;;;10.00;97.30;;;;;;4980047;28;20031;-67
2023/10/30 08:08:17;;;;;;;3.33;0.80;;;10.10;97.10;;;;;;4985128;28;20041;-69
2023/10/30 08:10:45;;;;;;;0.65;0.40;;;10.10;97.20;;;;;;4986755;28;20034;-67
2023/10/30 08:13:11;;;;;;;3.25;0.85;;;10.40;97.00;;;;;;4978600;28;20042;-67
2023/10/30 08:15:36;;;;;;;1.08;0.65;;;10.60;96.10;;;;;;4988285;28;20045;-66
2023/10/30 08:18:05;;;;;;;4.00;0.55;;;10.70;95.90;;;;;;4984885;28;20030;-65
2023/10/30 08:20:31;;;;;;;1.15;0.65;;;10.80;95.60;;;;;;5002088;28;20073;-64
2023/10/30 08:22:56;;;;;;;0.47;0.45;;;11.00;95.60;;;;;;4985344;28;20050;-65
2023/10/30 08:25:22;;;;;;;2.17;0.38;;;11.10;94.50;;;;;;4984813;28;20058;-66
2023/10/30 08:27:47;;;;;;;1.73;0.35;;;11.30;94.70;;;;;;4982531;28;20070;-65
2023/10/30 08:30:13;;;;;;;3.85;0.82;;;11.40;94.70;;;;;;4987191;28;20039;-65
2023/10/30 08:32:41;;;;;;;3.65;0.63;;;11.50;95.00;;;;;;4981929;28;20062;-66
2023/10/30 08:35:07;;;;;;;0.50;0.32;;;11.50;93.90;;;;;;4989538;28;20379;-66
2023/10/30 08:37:32;;;;;;;1.10;0.38;;;11.60;93.50;;;;;;4986231;28;20026;-65
2023/10/30 08:39:58;;;;;;;0.85;0.40;;;11.70;93.40;;;;;;4985392;28;20038;-65
2023/10/30 08:42:23;;;;;;;1.67;0.65;;;11.80;93.00;;;;;;4984229;28;20027;-66
2023/10/30 08:44:49;;;;;;;2.60;0.77;;;11.90;92.80;;;;;;4989671;28;20382;-66
2023/10/30 08:47:14;;;;;;;1.75;0.55;;;12.10;92.60;;;;;;4986901;28;20144;-65
2023/10/30 08:49:40;;;;;;;1.70;0.60;;;12.10;91.90;;;;;;4990710;28;20038;-65
2023/10/30 08:52:06;;;;;;;2.63;0.70;;;12.20;92.40;;;;;;4989284;28;20467;-65
2023/10/30 08:54:31;;;;;;;3.65;1.00;;;12.30;91.60;;;;;;4992180;28;20042;-64
2023/10/30 08:56:57;;;;;;;0.43;0.40;;;12.30;91.10;;;;;;4987627;28;20037;-66
2023/10/30 08:59:24;;;;;;;3.30;0.43;;;12.50;91.50;;;;;;4989650;28;20057;-65
2023/10/30 09:01:49;;;;;;;2.28;0.65;;;12.50;91.60;;;;;;4991970;28;20022;-65
2023/10/30 09:04:15;;;;;;;3.63;0.40;;;12.60;91.20;;;;;;4990686;28;20401;-64
2023/10/30 09:06:42;;;;;;;1.55;0.25;;;12.70;91.60;;;;;;4988691;28;20046;-65
2023/10/30 09:09:08;;;;;;;2.60;0.52;;;12.70;90.60;;;;;;4990484;28;20085;-64
2023/10/30 09:11:33;;;;;;;1.10;0.30;;;12.80;90.20;;;;;;4989879;28;20038;-66
2023/10/30 09:13:59;;;;;;;2.40;1.00;;;12.90;90.30;;;;;;4984040;28;20038;-65
2023/10/30 09:16:25;;;;;;;2.22;0.40;;;13.00;89.90;;;;;;4993148;28;20057;-65
2023/10/30 09:18:52;;;;;;;1.00;0.57;;;13.10;90.10;;;;;;4987649;28;20434;-64
2023/10/30 09:21:18;;;;;;;2.08;0.40;;;13.10;89.40;;;;;;4990099;28;20038;-67
2023/10/30 09:23:43;;;;;;;1.10;0.50;;;13.10;88.60;;;;;;4984784;28;20044;-65
2023/10/30 09:26:10;;;;;;;1.80;0.50;;;13.20;89.90;;;;;;4985394;28;20058;-65
2023/10/30 09:28:36;;;;;;;1.08;0.43;;;13.10;89.30;;;;;;4988934;28;20033;-68
2023/10/30 09:31:02;;;;;;;2.78;0.60;;;13.10;88.80;;;;;;4976992;28;20375;-64
2023/10/30 09:33:27;;;;;;;1.55;0.43;;;13.20;89.30;;;;;;4988115;28;20038;-65
2023/10/30 09:35:53;;;;;;;1.77;0.60;;;13.20;89.00;;;;;;4984806;28;20023;-65
2023/10/30 09:38:18;;;;;;;3.83;0.70;;;13.30;88.90;;;;;;4988309;28;20041;-65
2023/10/30 09:40:49;;;;;;;0.85;0.40;;;13.50;88.90;;;;;;4988700;28;20035;-65
2023/10/30 09:43:15;;;;;;;1.10;0.40;;;13.50;87.80;;;;;;4985184;28;20034;-65
2023/10/30 09:45:41;;;;;;;1.27;0.52;;;13.50;88.30;;;;;;4981018;28;20034;-65
2023/10/30 09:48:08;;;;;;;1.38;0.50;;;13.70;87.90;;;;;;4986025;28;20062;-65
2023/10/30 09:50:36;;;;;;;0.93;0.40;;;13.40;88.30;;;;;;4983066;28;20046;-68
2023/10/30 09:53:04;;;;;;;2.00;0.32;;;13.50;89.40;;;;;;4983712;28;20030;-64
2023/10/30 09:55:30;;;;;;;1.92;0.50;;;13.40;88.10;;;;;;4988200;28;20026;-64
2023/10/30 09:57:55;;;;;;;1.55;0.50;;;13.50;88.00;;;;;;4983663;28;20332;-65
2023/10/30 10:00:21;;;;;;;2.13;0.60;;;13.60;88.90;;;;;;4989001;28;20463;-66
2023/10/30 10:02:47;;;;;;;0.47;0.32;;;13.40;88.50;;;;;;4989997;28;20112;-65
2023/10/30 10:05:13;;;;;;;1.92;0.40;;;13.50;87.80;;;;;;4984691;28;20050;-65
2023/10/30 10:07:39;;;;;;;1.52;0.50;;;13.60;87.90;;;;;;4984045;28;20058;-65
2023/10/30 10:10:06;;;;;;;2.47;0.68;;;13.60;87.90;;;;;;4985819;28;20165;-65
2023/10/30 10:12:33;;;;;;;0.77;0.50;;;13.40;87.20;;;;;;4981576;28;20072;-66
2023/10/30 10:14:59;;;;;;;1.02;0.50;;;13.40;88.30;;;;;;4984892;28;20046;-66
2023/10/30 10:17:25;;;;;;;3.55;0.57;;;13.50;87.60;;;;;;4986891;28;20037;-66
2023/10/30 10:19:51;;;;;;;1.02;0.60;;;13.60;87.10;;;;;;4983328;28;20034;-66
2023/10/30 10:22:30;;;;;;;1.60;0.35;;;13.70;86.40;;;;;;4983432;28;20038;-64
2023/10/30 10:24:56;;;;;;;0.95;0.63;;;13.80;86.40;;;;;;4979098;28;20051;-65
2023/10/30 10:27:23;;;;;;;2.08;0.50;;;14.00;87.50;;;;;;4983684;28;20076;-65
2023/10/30 10:29:56;;;;;;;1.35;0.65;;;13.80;85.10;;;;;;4979313;28;20038;-65
2023/10/30 10:32:28;;;;;;;1.77;0.50;;;13.90;85.50;;;;;;4983598;28;20129;-65
2023/10/30 10:34:57;;;;;;;2.03;0.40;;;14.00;85.10;;;;;;4989269;28;20030;-66
2023/10/30 10:37:23;;;;;;;1.75;0.52;;;14.10;85.40;;;;;;4980926;28;20346;-66
2023/10/30 10:39:50;;;;;;;3.10;0.65;;;14.10;85.40;;;;;;4986366;28;20026;-65
2023/10/30 10:42:20;;;;;;;3.42;0.75;;;14.20;85.40;;;;;;4985648;28;20034;-65
2023/10/30 10:44:47;;;;;;;0.93;0.40;;;14.30;84.60;;;;;;4977280;28;20032;-67
2023/10/30 10:47:13;;;;;;;0.32;0.30;;;14.10;84.90;;;;;;4987651;28;20034;-65
2023/10/30 10:49:38;;;;;;;2.15;0.50;;;13.90;85.10;;;;;;4986083;28;20033;-65
2023/10/30 10:52:12;;;;;;;2.33;0.60;;;13.80;85.00;;;;;;4986652;28;20038;-68
2023/10/30 10:54:53;;;;;;;1.00;0.40;;;14.00;86.30;;;;;;4977994;28;20038;-68
2023/10/30 10:57:21;;;;;;;0.63;0.28;;;14.00;86.40;;;;;;4981095;28;20034;-66
2023/10/30 10:59:52;;;;;;;3.08;0.70;;;14.00;86.40;;;;;;4982556;28;20038;-66
2023/10/30 11:02:27;;;;;;;0.85;0.68;;;14.00;85.90;;;;;;4985878;28;20037;-67
2023/10/30 11:04:53;;;;;;;1.13;0.47;;;13.80;85.20;;;;;;4978989;28;20057;-66
2023/10/30 11:07:27;;;;;;;2.25;0.60;;;14.00;84.90;;;;;;4983648;28;20038;-66
2023/10/30 11:10:00;;;;;;;2.22;0.55;;;13.90;84.90;;;;;;4982827;28;20039;-64
2023/10/30 11:12:33;;;;;;;0.80;0.43;;;13.80;85.40;;;;;;4979488;28;20054;-66
2023/10/30 11:15:20;;;;;;;1.88;0.63;;;13.70;85.90;;;;;;4985539;28;20431;-65
2023/10/30 11:18:24;;;;;;;1.70;0.50;;;13.60;86.50;;;;;;4986008;28;20037;-66
2023/10/30 11:21:08;;;;;;;0.85;0.40;;;13.60;86.00;;;;;;4981988;28;20039;-66
2023/10/30 11:23:58;;;;;;;2.60;0.77;;;13.50;86.80;;;;;;4982385;28;20164;-65
2023/10/30 11:26:30;;;;;;;5.22;0.95;;;13.50;86.40;;;;;;4983726;28;20054;-65
2023/10/30 11:29:00;;;;;;;2.53;0.57;;;13.50;86.70;;;;;;4980014;28;20069;-66
2023/10/30 11:31:29;;;;;;;3.40;1.00;;;13.60;87.10;;;;;;4978535;28;20035;-66
2023/10/30 11:34:14;;;;;;;1.88;0.70;;;13.60;85.80;;;;;;4990803;28;20042;-65
2023/10/30 11:36:39;;;;;;;0.75;0.30;;;13.70;85.90;;;;;;4979239;28;20034;-68
2023/10/30 11:39:05;;;;;;;0.73;0.38;;;13.70;85.80;;;;;;4973999;28;20065;-65
2023/10/30 11:41:30;;;;;;;2.92;0.40;;;13.70;85.90;;;;;;4979654;28;20039;-66
2023/10/30 11:44:15;;;;;;;0.60;0.30;;;13.70;86.40;;;;;;4987154;28;20026;-66
2023/10/30 11:46:42;;;;;;;1.85;0.20;;;13.70;86.50;;;;;;4984407;28;20042;-66
2023/10/30 11:49:09;;;;;;;0.88;0.30;;;13.90;86.20;;;;;;4988373;28;20037;-65
2023/10/30 11:51:41;;;;;;;1.65;0.63;;;13.90;85.50;;;;;;4988133;28;20030;-65
2023/10/30 11:54:07;;;;;;;2.15;0.63;;;13.90;85.90;;;;;;4983216;28;20022;-68
2023/10/30 11:56:32;;;;;;;1.10;0.50;;;14.00;86.00;;;;;;4983060;28;20052;-66
2023/10/30 11:58:59;;;;;;;1.90;0.50;;;14.00;86.10;;;;;;4986419;28;20173;-65
2023/10/30 12:01:24;;;;;;;2.45;0.60;;;14.00;85.70;;;;;;4980225;28;20035;-65
2023/10/30 12:03:50;;;;;;;1.73;0.38;;;14.00;85.60;;;;;;4984817;28;20110;-65
2023/10/30 12:06:15;;;;;;;0.35;0.35;;;14.30;85.10;;;;;;4984700;28;20053;-67
2023/10/30 12:08:41;;;;;;;2.83;0.40;;;14.50;84.20;;;;;;4979576;28;20043;-66
2023/10/30 12:11:06;;;;;;;0.52;0.30;;;14.80;85.40;;;;;;4986332;28;20047;-65
2023/10/30 12:13:32;;;;;;;2.03;0.63;;;15.10;82.90;;;;;;4981933;28;20074;-66
2023/10/30 12:15:58;;;;;;;2.25;0.45;;;15.40;81.10;;;;;;4984064;28;20046;-66
2023/10/30 12:18:23;;;;;;;3.47;0.80;;;15.50;81.30;;;;;;4989999;28;20037;-66
2023/10/30 12:20:49;;;;;;;1.17;0.50;;;15.50;81.80;;;;;;4990914;28;20489;-66
2023/10/30 12:23:15;;;;;;;2.58;0.68;;;15.10;80.60;;;;;;4988474;28;20704;-65
2023/10/30 12:25:41;;;;;;;1.48;0.35;;;15.20;81.20;;;;;;4986205;28;20042;-65
2023/10/30 12:28:06;;;;;;;1.75;0.40;;;15.40;81.50;;;;;;4982899;28;20456;-66
2023/10/30 12:30:36;;;;;;;1.85;0.50;;;15.20;81.00;;;;;;4985533;28;20117;-65
2023/10/30 12:33:01;;;;;;;2.05;0.40;;;14.90;82.60;;;;;;4983990;28;20034;-66
2023/10/30 12:35:27;;;;;;;1.45;0.80;;;14.80;83.30;;;;;;4981401;28;20038;-65
2023/10/30 12:37:52;;;;;;;1.33;0.50;;;14.90;83.20;;;;;;4983122;28;20415;-66
2023/10/30 12:40:18;;;;;;;1.73;0.57;;;14.90;82.30;;;;;;4983408;28;20030;-67
2023/10/30 12:42:48;;;;;;;1.25;0.57;;;14.80;82.30;;;;;;4974127;28;20041;-65
2023/10/30 12:45:15;;;;;;;1.70;0.50;;;15.40;81.40;;;;;;4984270;28;20034;-65